createdAt,value
2019-03-15T00:02:11.779Z,15.20
2019-03-15T00:04:44.084Z,14.75
2019-03-15T00:07:16.300Z,20.60
2019-03-15T00:09:48.550Z,15.03
2019-03-15T00:12:21.558Z,12.43
2019-03-15T00:14:53.894Z,21.37
2019-03-15T00:17:26.144Z,15.30
2019-03-15T00:19:58.490Z,13.20
2019-03-15T00:22:30.766Z,13.25
2019-03-15T00:25:03.291Z,12.07
2019-03-15T00:27:35.709Z,19.85
2019-03-15T00:30:10.195Z,14.80
2019-03-15T00:32:42.512Z,17.17
2019-03-15T00:35:14.755Z,21.80
2019-03-15T00:37:46.965Z,13.40
2019-03-15T00:40:19.220Z,11.25
2019-03-15T00:42:51.446Z,14.63
2019-03-15T00:45:23.670Z,14.97
2019-03-15T00:47:55.955Z,15.50
2019-03-15T00:50:28.202Z,16.93
2019-03-15T00:53:00.496Z,14.45
2019-03-15T00:55:36.704Z,14.93
2019-03-15T00:58:08.926Z,14.30
2019-03-15T01:00:41.166Z,12.33
2019-03-15T01:03:13.424Z,16.05
2019-03-15T01:05:45.771Z,14.75
2019-03-15T01:08:18.076Z,12.77
2019-03-15T01:10:50.322Z,12.55
2019-03-15T01:13:22.609Z,12.20
2019-03-15T01:15:54.844Z,13.90
2019-03-15T01:18:27.055Z,17.02
2019-03-15T01:20:59.347Z,17.15
2019-03-15T01:23:31.585Z,12.30
2019-03-15T01:26:04.152Z,9.63
2019-03-15T01:28:36.382Z,11.20
2019-03-15T01:31:08.657Z,13.10
2019-03-15T01:33:41.917Z,15.90
2019-03-15T01:36:14.147Z,16.45
2019-03-15T01:38:46.393Z,10.80
2019-03-15T01:41:18.643Z,13.20
2019-03-15T01:43:50.887Z,11.65
2019-03-15T01:46:23.241Z,9.90
2019-03-15T01:48:55.473Z,15.13
2019-03-15T01:51:27.721Z,14.43
2019-03-15T01:54:02.683Z,10.93
2019-03-15T01:56:34.922Z,15.10
2019-03-15T01:59:07.186Z,13.18
2019-03-15T02:01:39.502Z,15.70
2019-03-15T02:04:11.729Z,15.32
2019-03-15T02:06:43.971Z,10.70
2019-03-15T02:09:16.208Z,9.10
2019-03-15T02:11:48.510Z,12.05
2019-03-15T02:14:20.799Z,10.70
2019-03-15T02:16:53.156Z,8.83
2019-03-15T02:19:25.421Z,15.05
2019-03-15T02:21:58.586Z,11.57
2019-03-15T02:24:30.823Z,9.10
2019-03-15T02:27:03.122Z,11.78
2019-03-15T02:29:35.345Z,8.20
2019-03-15T02:32:07.590Z,12.88
2019-03-15T02:34:39.827Z,11.83
2019-03-15T02:37:12.090Z,9.35
2019-03-15T02:39:45.384Z,9.23
2019-03-15T02:42:18.398Z,9.63
2019-03-15T02:44:50.702Z,10.80
2019-03-15T02:47:22.941Z,14.38
2019-03-15T02:49:55.166Z,6.87
2019-03-15T02:52:27.403Z,10.90
2019-03-15T02:54:59.662Z,9.18
2019-03-15T02:57:31.909Z,10.78
2019-03-15T03:00:05.396Z,13.00
2019-03-15T03:02:37.649Z,11.28
2019-03-15T03:05:12.600Z,12.88
2019-03-15T03:07:44.901Z,15.48
2019-03-15T03:10:17.259Z,12.15
2019-03-15T03:12:49.488Z,8.93
2019-03-15T03:15:21.788Z,9.18
2019-03-15T03:17:54.354Z,10.63
2019-03-15T03:20:26.924Z,7.83
2019-03-15T03:22:59.266Z,9.70
2019-03-15T03:25:31.494Z,13.93
2019-03-15T03:28:03.737Z,13.03
2019-03-15T03:30:35.962Z,10.18
2019-03-15T03:33:08.225Z,13.03
2019-03-15T03:35:40.557Z,13.98
2019-03-15T03:38:12.784Z,10.15
2019-03-15T03:40:45.181Z,16.23
2019-03-15T03:43:17.426Z,9.58
2019-03-15T03:45:49.751Z,6.42
2019-03-15T03:48:22.364Z,12.17
2019-03-15T03:50:54.694Z,12.40
2019-03-15T03:53:26.909Z,11.35
2019-03-15T03:55:59.320Z,11.05
2019-03-15T03:58:31.557Z,10.30
2019-03-15T04:01:07.448Z,10.13
2019-03-15T04:03:38.355Z,6.47
2019-03-15T04:06:10.592Z,12.93
2019-03-15T04:08:43.067Z,12.10
2019-03-15T04:11:15.288Z,13.55
2019-03-15T04:13:47.547Z,9.80
2019-03-15T04:16:19.776Z,14.33
2019-03-15T04:18:51.983Z,6.95
2019-03-15T04:21:24.233Z,13.62
2019-03-15T04:23:56.487Z,10.75
2019-03-15T04:26:28.716Z,11.85
2019-03-15T04:29:00.946Z,10.28
2019-03-15T04:31:33.163Z,8.85
2019-03-15T04:34:05.408Z,17.07
2019-03-15T04:36:38.574Z,11.68
2019-03-15T04:39:13.783Z,13.03
2019-03-15T04:41:44.778Z,12.47
2019-03-15T04:44:17.020Z,9.98
2019-03-15T04:46:49.243Z,15.00
2019-03-15T04:49:21.480Z,13.80
2019-03-15T04:51:53.705Z,11.00
2019-03-15T04:54:26.015Z,10.57
2019-03-15T04:56:58.299Z,13.03
2019-03-15T04:59:30.564Z,14.85
2019-03-15T05:02:02.807Z,13.35
2019-03-15T05:04:35.062Z,11.45
2019-03-15T05:07:07.293Z,12.07
2019-03-15T05:09:39.534Z,15.68
2019-03-15T05:12:11.772Z,16.50
2019-03-15T05:14:44.015Z,16.05
2019-03-15T05:17:16.244Z,11.88
2019-03-15T05:19:48.590Z,12.47
2019-03-15T05:22:20.826Z,10.38
2019-03-15T05:24:53.090Z,12.70
2019-03-15T05:27:25.322Z,10.55
2019-03-15T05:29:57.823Z,13.22
2019-03-15T05:32:31.137Z,12.65
2019-03-15T05:35:04.158Z,11.60
2019-03-15T05:37:36.380Z,17.85
2019-03-15T05:40:08.686Z,16.10
2019-03-15T05:42:40.939Z,12.98
2019-03-15T05:45:13.356Z,12.07
2019-03-15T05:47:45.599Z,16.97
2019-03-15T05:50:17.923Z,13.80
2019-03-15T05:52:50.154Z,11.83
2019-03-15T05:55:22.384Z,14.70
2019-03-15T05:57:54.660Z,15.03
2019-03-15T06:00:26.904Z,14.90
2019-03-15T06:02:59.150Z,10.88
2019-03-15T06:05:31.424Z,14.75
2019-03-15T06:08:03.713Z,12.18
2019-03-15T06:10:35.942Z,13.38
2019-03-15T06:13:08.159Z,14.03
2019-03-15T06:15:40.716Z,14.75
2019-03-15T06:18:12.959Z,14.25
2019-03-15T06:20:45.213Z,10.45
2019-03-15T06:23:17.677Z,14.23
2019-03-15T06:25:49.905Z,12.33
2019-03-15T06:28:22.129Z,21.37
2019-03-15T06:30:54.389Z,13.70
2019-03-15T06:33:28.753Z,13.58
2019-03-15T06:36:00.568Z,8.50
2019-03-15T06:38:33.687Z,12.15
2019-03-15T06:41:06.036Z,11.43
2019-03-15T06:43:38.267Z,14.53
2019-03-15T06:46:10.523Z,12.68
2019-03-15T06:48:45.053Z,9.70
2019-03-15T06:51:16.702Z,13.43
2019-03-15T06:53:48.968Z,11.18
2019-03-15T06:56:21.254Z,14.15
2019-03-15T06:58:53.461Z,12.98
2019-03-15T07:01:25.796Z,13.40
2019-03-15T07:03:58.007Z,19.30
2019-03-15T07:06:30.254Z,12.40
2019-03-15T07:09:02.481Z,10.53
2019-03-15T07:11:34.709Z,7.55
2019-03-15T07:14:06.921Z,9.05
2019-03-15T07:16:39.178Z,12.03
2019-03-15T07:19:11.402Z,14.45
2019-03-15T07:21:46.700Z,8.23
2019-03-15T07:24:24.973Z,14.25
2019-03-15T07:26:51.581Z,9.00
2019-03-15T07:29:23.806Z,6.67
2019-03-15T07:31:56.075Z,7.67
2019-03-15T07:34:28.306Z,7.53
2019-03-15T07:37:00.549Z,7.28
2019-03-15T07:39:32.775Z,12.65
2019-03-15T07:42:05.019Z,8.78
2019-03-15T07:44:37.230Z,8.38
2019-03-15T07:47:09.448Z,5.28
2019-03-15T07:49:41.736Z,9.60
2019-03-15T07:52:14.869Z,6.55
2019-03-15T07:54:47.087Z,10.15
2019-03-15T07:57:19.393Z,3.85
2019-03-15T07:59:51.618Z,5.10
2019-03-15T08:02:24.978Z,7.20
2019-03-15T08:04:57.290Z,3.67
2019-03-15T08:07:37.346Z,5.42
2019-03-15T08:10:08.248Z,9.23
2019-03-15T08:12:40.487Z,6.80
2019-03-15T08:15:13.090Z,2.92
2019-03-15T08:17:45.344Z,4.20
2019-03-15T08:20:17.686Z,5.90
2019-03-15T08:22:49.928Z,3.90
2019-03-15T08:25:22.165Z,5.27
2019-03-15T08:27:54.484Z,5.53
2019-03-15T08:30:26.824Z,6.65
2019-03-15T08:33:09.510Z,5.12
2019-03-15T08:35:33.032Z,7.17
2019-03-15T08:38:05.551Z,4.80
2019-03-15T08:40:37.823Z,4.83
2019-03-15T08:43:10.066Z,6.50
2019-03-15T08:45:42.287Z,3.25
2019-03-15T08:48:14.533Z,2.95
2019-03-15T08:50:46.781Z,3.37
2019-03-15T08:53:19.034Z,3.20
2019-03-15T08:55:51.284Z,3.20
2019-03-15T08:58:23.518Z,3.52
2019-03-15T09:00:55.736Z,4.78
2019-03-15T09:03:28.561Z,2.25
2019-03-15T09:06:02.419Z,3.62
2019-03-15T09:08:37.174Z,7.22
2019-03-15T09:11:08.690Z,17.30
2019-03-15T09:13:40.927Z,2.85
2019-03-15T09:16:13.168Z,2.40
2019-03-15T09:18:45.417Z,2.92
2019-03-15T09:21:17.634Z,5.30
2019-03-15T09:23:50.082Z,3.33
2019-03-15T09:26:22.358Z,5.78
2019-03-15T09:28:54.694Z,3.50
2019-03-15T09:31:26.910Z,2.05
2019-03-15T09:33:59.215Z,4.10
2019-03-15T09:36:33.871Z,2.45
2019-03-15T09:39:05.833Z,17.20
2019-03-15T09:41:40.219Z,4.40
2019-03-15T09:44:12.613Z,8.48
2019-03-15T09:46:44.828Z,4.75
2019-03-15T09:49:17.069Z,6.85
2019-03-15T09:51:49.309Z,4.28
2019-03-15T09:54:21.533Z,4.47
2019-03-15T09:56:53.755Z,6.90
2019-03-15T09:59:26.021Z,2.55
2019-03-15T10:01:58.243Z,3.27
2019-03-15T10:04:30.541Z,3.50
2019-03-15T10:07:02.771Z,5.10
2019-03-15T10:09:45.319Z,2.55
2019-03-15T10:12:09.000Z,1.02
2019-03-15T10:14:41.258Z,5.10
2019-03-15T10:17:13.566Z,1.45
2019-03-15T10:19:45.836Z,0.95
2019-03-15T10:22:18.140Z,3.50
2019-03-15T10:24:50.378Z,4.47
2019-03-15T10:27:22.604Z,1.40
2019-03-15T10:29:54.826Z,0.60
2019-03-15T10:32:27.046Z,0.90
2019-03-15T10:34:59.279Z,1.07
2019-03-15T10:37:31.495Z,1.70
2019-03-15T10:40:05.306Z,2.40
2019-03-15T10:42:37.682Z,2.58
2019-03-15T10:45:10.009Z,2.40
2019-03-15T10:47:42.838Z,1.40
2019-03-15T10:50:16.312Z,2.80
2019-03-15T10:52:48.532Z,2.08
2019-03-15T10:55:21.010Z,0.65
2019-03-15T10:57:53.283Z,1.42
2019-03-15T11:00:25.510Z,2.15
2019-03-15T11:02:57.801Z,1.02
2019-03-15T11:05:30.034Z,3.22
2019-03-15T11:08:02.476Z,1.60
2019-03-15T11:10:34.781Z,2.42
2019-03-15T11:13:06.988Z,0.82
2019-03-15T11:15:39.344Z,1.45
2019-03-15T11:18:11.566Z,3.83
2019-03-15T11:20:43.969Z,2.92
2019-03-15T11:23:16.256Z,1.55
2019-03-15T11:25:48.560Z,0.62
2019-03-15T11:28:20.789Z,0.90
2019-03-15T11:30:53.047Z,2.90
2019-03-15T11:33:25.278Z,1.12
2019-03-15T11:35:58.420Z,2.22
2019-03-15T11:38:31.492Z,0.93
2019-03-15T11:41:03.734Z,2.70
2019-03-15T11:43:36.010Z,0.95
2019-03-15T11:46:08.292Z,1.42
2019-03-15T11:48:40.512Z,4.40
2019-03-15T11:51:12.766Z,2.33
2019-03-15T11:53:45.052Z,9.78
2019-03-15T11:56:27.034Z,1.82
2019-03-15T11:58:51.247Z,1.55
2019-03-15T12:01:23.484Z,2.85
2019-03-15T12:03:55.725Z,2.95
2019-03-15T12:06:27.988Z,1.95
2019-03-15T12:09:00.223Z,3.95
2019-03-15T12:11:32.551Z,2.35
2019-03-15T12:14:04.762Z,3.70
2019-03-15T12:16:37.002Z,2.10
2019-03-15T12:19:09.219Z,4.67
2019-03-15T12:21:41.457Z,2.42
2019-03-15T12:24:13.675Z,4.30
2019-03-15T12:26:45.908Z,2.85
2019-03-15T12:29:18.253Z,3.58
2019-03-15T12:31:50.693Z,2.47
2019-03-15T12:34:22.982Z,1.82
2019-03-15T12:36:55.247Z,3.20
2019-03-15T12:39:27.462Z,2.87
2019-03-15T12:41:59.691Z,4.12
2019-03-15T12:44:31.987Z,3.72
2019-03-15T12:47:06.230Z,3.33
2019-03-15T12:49:38.713Z,4.35
2019-03-15T12:52:11.000Z,1.92
2019-03-15T12:54:43.237Z,1.92
2019-03-15T12:57:15.470Z,3.20
2019-03-15T12:59:47.768Z,3.95
2019-03-15T13:02:20.535Z,3.80
2019-03-15T13:04:52.877Z,1.67
2019-03-15T13:07:25.117Z,2.27
2019-03-15T13:09:57.350Z,3.35
2019-03-15T13:12:29.692Z,3.33
2019-03-15T13:15:02.031Z,2.37
2019-03-15T13:17:34.277Z,1.22
2019-03-15T13:20:07.886Z,3.30
2019-03-15T13:22:40.193Z,2.00
2019-03-15T13:25:12.598Z,3.40
2019-03-15T13:27:44.827Z,1.70
2019-03-15T13:30:17.045Z,3.45
2019-03-15T13:32:49.295Z,2.15
2019-03-15T13:35:21.525Z,2.33
2019-03-15T13:37:53.786Z,2.72
2019-03-15T13:40:26.016Z,2.50
2019-03-15T13:42:58.248Z,2.70
2019-03-15T13:45:30.460Z,2.65
2019-03-15T13:48:02.755Z,1.82
2019-03-15T13:50:34.973Z,2.80
2019-03-15T13:53:07.312Z,2.42
2019-03-15T13:55:39.538Z,1.65
2019-03-15T13:58:11.771Z,2.92
2019-03-15T14:00:44.997Z,3.67
2019-03-15T14:03:17.263Z,2.42
2019-03-15T14:05:49.506Z,3.90
2019-03-15T14:08:21.746Z,1.62
2019-03-15T14:10:53.986Z,3.70
2019-03-15T14:13:26.232Z,4.65
2019-03-15T14:16:01.506Z,3.65
2019-03-15T14:18:32.424Z,5.20
2019-03-15T14:21:04.741Z,3.10
2019-03-15T14:23:37.004Z,4.08
2019-03-15T14:26:10.177Z,3.22
2019-03-15T14:28:42.493Z,3.35
2019-03-15T14:31:14.730Z,3.22
2019-03-15T14:33:46.962Z,5.08
2019-03-15T14:36:19.179Z,3.22
2019-03-15T14:38:51.405Z,5.17
2019-03-15T14:41:24.727Z,13.03
2019-03-15T14:43:57.032Z,2.63
2019-03-15T14:46:30.226Z,2.67
2019-03-15T14:49:05.474Z,1.90
2019-03-15T14:51:37.718Z,6.83
2019-03-15T14:54:09.961Z,2.90
2019-03-15T14:56:42.194Z,3.92
2019-03-15T14:59:15.461Z,3.83
2019-03-15T15:01:47.794Z,2.30
2019-03-15T15:04:20.088Z,1.97
2019-03-15T15:06:52.371Z,1.77
2019-03-15T15:09:24.622Z,2.75
2019-03-15T15:11:56.855Z,0.85
2019-03-15T15:14:30.038Z,1.30
2019-03-15T15:17:04.677Z,3.90
2019-03-15T15:19:36.348Z,2.47
2019-03-15T15:22:08.593Z,1.30
2019-03-15T15:24:40.871Z,0.93
2019-03-15T15:27:13.111Z,1.90
2019-03-15T15:29:45.332Z,5.33
2019-03-15T15:32:17.580Z,0.78
2019-03-15T15:34:49.809Z,1.25
2019-03-15T15:37:22.039Z,0.85
2019-03-15T15:39:54.283Z,1.57
2019-03-15T15:42:26.498Z,2.75
2019-03-15T15:44:58.733Z,0.42
2019-03-15T15:47:30.962Z,1.12
2019-03-15T15:50:03.980Z,1.80
2019-03-15T15:52:36.230Z,2.42
2019-03-15T15:55:09.243Z,3.20
2019-03-15T15:57:41.468Z,2.20
2019-03-15T16:00:15.273Z,3.47
2019-03-15T16:02:47.599Z,1.20
2019-03-15T16:05:19.820Z,1.72
2019-03-15T16:07:52.070Z,2.10
2019-03-15T16:10:24.374Z,0.70
2019-03-15T16:12:56.625Z,2.50
2019-03-15T16:15:28.825Z,4.40
2019-03-15T16:18:01.059Z,2.45
2019-03-15T16:20:33.296Z,1.82
2019-03-15T16:23:05.571Z,1.05
2019-03-15T16:25:37.812Z,2.12
2019-03-15T16:28:10.029Z,2.15
2019-03-15T16:30:43.395Z,0.78
2019-03-15T16:33:15.628Z,1.95
2019-03-15T16:35:48.863Z,3.40
2019-03-15T16:38:22.013Z,1.00
2019-03-15T16:40:54.347Z,1.65
2019-03-15T16:43:26.574Z,1.00
2019-03-15T16:45:58.874Z,1.87
2019-03-15T16:48:31.108Z,0.85
2019-03-15T16:51:03.338Z,0.55
2019-03-15T16:53:35.585Z,1.75
2019-03-15T16:56:07.795Z,0.82
2019-03-15T16:58:45.461Z,0.88
2019-03-15T17:01:14.058Z,0.20
2019-03-15T17:03:46.299Z,0.40
2019-03-15T17:06:18.516Z,0.53
2019-03-15T17:08:50.767Z,1.25
2019-03-15T17:11:22.993Z,1.10
2019-03-15T17:13:55.239Z,1.15
2019-03-15T17:16:27.485Z,0.75
2019-03-15T17:18:59.810Z,2.95
2019-03-15T17:21:32.068Z,1.37
2019-03-15T17:24:04.402Z,0.45
2019-03-15T17:26:36.694Z,7.70
2019-03-15T17:29:08.994Z,1.82
2019-03-15T17:31:41.316Z,0.57
2019-03-15T17:34:13.652Z,0.80
2019-03-15T17:36:46.031Z,2.37
2019-03-15T17:39:19.201Z,0.95
2019-03-15T17:41:51.445Z,1.10
2019-03-15T17:44:23.678Z,2.10
2019-03-15T17:46:55.906Z,1.95
2019-03-15T17:49:28.139Z,3.40
2019-03-15T17:52:00.363Z,1.45
2019-03-15T17:54:32.643Z,0.85
2019-03-15T17:57:04.841Z,2.10
2019-03-15T17:59:37.080Z,1.77
2019-03-15T18:02:09.315Z,0.60
2019-03-15T18:04:41.579Z,2.47
2019-03-15T18:07:13.787Z,3.50
2019-03-15T18:09:46.018Z,6.37
2019-03-15T18:12:18.244Z,2.45
2019-03-15T18:14:50.572Z,0.80
2019-03-15T18:17:22.787Z,0.47
2019-03-15T18:19:55.046Z,0.80
2019-03-15T18:22:27.247Z,1.02
2019-03-15T18:24:59.501Z,6.15
2019-03-15T18:27:31.724Z,2.45
2019-03-15T18:30:05.423Z,1.72
2019-03-15T18:32:37.651Z,2.50
2019-03-15T18:35:10.246Z,1.35
2019-03-15T18:37:42.463Z,1.05
2019-03-15T18:40:15.681Z,1.98
2019-03-15T18:42:47.975Z,2.08
2019-03-15T18:45:20.191Z,4.42
2019-03-15T18:47:52.428Z,0.57
2019-03-15T18:50:25.035Z,0.42
2019-03-15T18:52:57.271Z,1.40
2019-03-15T18:55:29.574Z,0.75
2019-03-15T18:58:01.814Z,0.88
2019-03-15T19:00:34.058Z,1.07
2019-03-15T19:03:06.353Z,1.05
2019-03-15T19:05:39.132Z,4.95
2019-03-15T19:08:11.371Z,2.20
2019-03-15T19:10:43.636Z,0.35
2019-03-15T19:13:15.930Z,1.17
2019-03-15T19:15:48.199Z,3.70
2019-03-15T19:18:20.419Z,1.60
2019-03-15T19:20:52.802Z,3.17
2019-03-15T19:23:25.151Z,1.85
2019-03-15T19:25:57.396Z,1.40
2019-03-15T19:28:29.640Z,2.15
2019-03-15T19:31:01.910Z,1.10
2019-03-15T19:33:34.144Z,0.88
2019-03-15T19:36:06.410Z,2.83
2019-03-15T19:38:39.191Z,0.78
2019-03-15T19:41:11.418Z,0.57
2019-03-15T19:43:43.649Z,0.75
2019-03-15T19:46:15.870Z,0.35
2019-03-15T19:48:48.094Z,12.80
2019-03-15T19:51:20.341Z,1.87
2019-03-15T19:53:52.562Z,2.20
2019-03-15T19:56:24.813Z,1.15
2019-03-15T19:58:57.072Z,1.50
2019-03-15T20:01:29.415Z,0.60
2019-03-15T20:04:01.695Z,2.00
2019-03-15T20:06:33.976Z,1.02
2019-03-15T20:09:06.996Z,3.80
2019-03-15T20:11:39.366Z,1.82
2019-03-15T20:14:11.586Z,2.47
2019-03-15T20:16:43.844Z,4.67
2019-03-15T20:19:16.073Z,1.35
2019-03-15T20:21:48.356Z,2.72
2019-03-15T20:24:20.579Z,1.32
2019-03-15T20:26:52.812Z,3.50
2019-03-15T20:29:25.040Z,4.10
2019-03-15T20:31:57.361Z,2.47
2019-03-15T20:34:29.595Z,3.05
2019-03-15T20:37:01.836Z,1.15
2019-03-15T20:39:34.070Z,3.00
2019-03-15T20:42:06.314Z,1.20
2019-03-15T20:44:39.180Z,6.25
2019-03-15T20:47:11.431Z,3.10
2019-03-15T20:49:43.642Z,1.50
2019-03-15T20:52:15.886Z,2.33
2019-03-15T20:54:48.103Z,1.82
2019-03-15T20:57:20.370Z,1.60
2019-03-15T20:59:52.747Z,2.08
2019-03-15T21:02:24.971Z,2.10
2019-03-15T21:04:57.190Z,3.12
2019-03-15T21:07:29.424Z,2.87
2019-03-15T21:10:01.745Z,4.53
2019-03-15T21:12:33.975Z,2.55
2019-03-15T21:15:07.281Z,4.37
2019-03-15T21:17:40.537Z,1.87
2019-03-15T21:20:14.392Z,2.85
2019-03-15T21:22:46.691Z,1.62
2019-03-15T21:25:18.930Z,4.00
2019-03-15T21:27:54.115Z,1.67
2019-03-15T21:30:25.723Z,4.70
2019-03-15T21:32:57.977Z,1.90
2019-03-15T21:35:30.176Z,3.87
2019-03-15T21:38:02.408Z,3.10
2019-03-15T21:40:34.618Z,2.27
2019-03-15T21:43:06.954Z,6.15
2019-03-15T21:45:39.496Z,5.33
2019-03-15T21:48:11.878Z,1.90
2019-03-15T21:50:44.696Z,7.55
2019-03-15T21:53:17.215Z,16.60
2019-03-15T21:55:49.435Z,20.93
2019-03-15T21:58:22.232Z,15.08
2019-03-15T22:01:02.244Z,8.77
2019-03-15T22:03:28.902Z,8.98
2019-03-15T22:06:01.129Z,10.58
2019-03-15T22:08:33.989Z,5.95
2019-03-15T22:11:06.207Z,4.40
2019-03-15T22:13:38.552Z,9.78
2019-03-15T22:16:10.840Z,4.40
2019-03-15T22:18:43.135Z,8.13
2019-03-15T22:21:15.456Z,5.15
2019-03-15T22:23:47.700Z,1.92
2019-03-15T22:26:19.922Z,10.98
2019-03-15T22:28:52.157Z,2.12
2019-03-15T22:31:24.384Z,4.78
2019-03-15T22:33:56.752Z,2.27
2019-03-15T22:36:28.981Z,3.83
2019-03-15T22:39:01.218Z,3.17
2019-03-15T22:41:35.823Z,6.62
2019-03-15T22:44:07.669Z,2.02
2019-03-15T22:46:39.905Z,2.65
2019-03-15T22:49:12.141Z,3.50
2019-03-15T22:51:44.371Z,5.97
2019-03-15T22:54:16.604Z,5.72
2019-03-15T22:56:48.826Z,6.67
2019-03-15T22:59:21.080Z,5.45
2019-03-15T23:01:53.323Z,6.28
2019-03-15T23:04:25.612Z,4.60
2019-03-15T23:06:57.836Z,3.45
2019-03-15T23:09:30.199Z,6.55
2019-03-15T23:12:02.463Z,4.95
2019-03-15T23:14:34.706Z,3.95
2019-03-15T23:17:06.935Z,4.35
2019-03-15T23:19:39.326Z,5.95
2019-03-15T23:22:11.557Z,5.08
2019-03-15T23:24:43.802Z,4.10
2019-03-15T23:27:17.020Z,8.40
2019-03-15T23:29:49.254Z,6.83
2019-03-15T23:32:21.574Z,4.95
2019-03-15T23:34:53.842Z,7.78
2019-03-15T23:37:26.143Z,6.22
2019-03-15T23:39:58.370Z,7.12
2019-03-15T23:42:30.605Z,6.72
2019-03-15T23:45:02.913Z,6.25
2019-03-15T23:47:35.124Z,6.50
2019-03-15T23:50:08.893Z,7.80
2019-03-15T23:52:41.172Z,4.87
2019-03-15T23:55:13.403Z,3.22
2019-03-15T23:57:45.648Z,4.92
